ESFJ weather

CLOSED Sjöbo Air Base
Sjöbo, Skåne län, Sweden

Public forecast

Using degrees Celsius for public forecast. Weather courtesy of forecast.io.

METAR (pilot weather report)

Closest report is Malmö Sturup Airport, 10.8 nm (20.1 km) SW. Retrieved 2019/07/17 21:20 UTC (21 minutes ago):

ESMS 172120Z VRB02KT CAVOK 15/13 Q1013

TAF (pilot weather forecast)

Closest forecast is Malmö Sturup Airport, 10.8 nm (20.1 km) SW. Retrieved 2019/07/17 18:33 UTC (3 hours ago):

TAF ESMS 171700Z 1718/1818 30005KT 9999 SCT040